sensor_id;sensor_type;location;lat;lon;timestamp;pressure;altitude;pressure_sealevel;temperature;humidity
70544;BME280;58097;48.364;-1.224;2023-11-18T00:02:17;100247.19;;;10.59;100.00
70544;BME280;58097;48.364;-1.224;2023-11-18T00:04:42;100244.56;;;10.58;100.00
70544;BME280;58097;48.364;-1.224;2023-11-18T00:07:08;100230.59;;;10.59;100.00
70544;BME280;58097;48.364;-1.224;2023-11-18T00:09:33;100217.34;;;10.63;100.00
70544;BME280;58097;48.364;-1.224;2023-11-18T00:11:58;100223.19;;;10.60;100.00
70544;BME280;58097;48.364;-1.224;2023-11-18T00:14:24;100210.84;;;10.54;100.00
70544;BME280;58097;48.364;-1.224;2023-11-18T00:16:49;100200.97;;;10.51;100.00
70544;BME280;58097;48.364;-1.224;2023-11-18T00:19:14;100203.50;;;10.45;100.00
70544;BME280;58097;48.364;-1.224;2023-11-18T00:21:40;100197.81;;;10.46;100.00
70544;BME280;58097;48.364;-1.224;2023-11-18T00:24:06;100192.28;;;10.46;100.00
70544;BME280;58097;48.364;-1.224;2023-11-18T00:26:33;100181.78;;;10.50;100.00
70544;BME280;58097;48.364;-1.224;2023-11-18T00:28:59;100178.88;;;10.51;100.00
70544;BME280;58097;48.364;-1.224;2023-11-18T00:31:25;100166.63;;;10.54;100.00
70544;BME280;58097;48.364;-1.224;2023-11-18T00:33:51;100166.78;;;10.52;100.00
70544;BME280;58097;48.364;-1.224;2023-11-18T00:36:16;100162.28;;;10.51;100.00
70544;BME280;58097;48.364;-1.224;2023-11-18T00:38:41;100163.06;;;10.44;100.00
70544;BME280;58097;48.364;-1.224;2023-11-18T00:41:07;100174.84;;;10.46;100.00
70544;BME280;58097;48.364;-1.224;2023-11-18T00:43:32;100167.25;;;10.48;100.00
70544;BME280;58097;48.364;-1.224;2023-11-18T00:45:58;100161.34;;;10.43;100.00
70544;BME280;58097;48.364;-1.224;2023-11-18T00:48:24;100162.22;;;10.43;100.00
70544;BME280;58097;48.364;-1.224;2023-11-18T00:50:50;100166.41;;;10.47;100.00
70544;BME280;58097;48.364;-1.224;2023-11-18T00:53:17;100155.50;;;10.46;100.00
70544;BME280;58097;48.364;-1.224;2023-11-18T00:55:42;100147.91;;;10.48;100.00
70544;BME280;58097;48.364;-1.224;2023-11-18T00:58:08;100154.06;;;10.42;100.00
70544;BME280;58097;48.364;-1.224;2023-11-18T01:00:33;100139.94;;;10.45;100.00
70544;BME280;58097;48.364;-1.224;2023-11-18T01:02:58;100138.59;;;10.49;100.00
70544;BME280;58097;48.364;-1.224;2023-11-18T01:05:24;100143.09;;;10.50;100.00
70544;BME280;58097;48.364;-1.224;2023-11-18T01:07:49;100137.72;;;10.48;100.00
70544;BME280;58097;48.364;-1.224;2023-11-18T01:10:15;100140.50;;;10.48;100.00
70544;BME280;58097;48.364;-1.224;2023-11-18T01:12:40;100146.75;;;10.50;100.00
70544;BME280;58097;48.364;-1.224;2023-11-18T01:15:07;100139.63;;;10.48;100.00
70544;BME280;58097;48.364;-1.224;2023-11-18T01:17:35;100137.91;;;10.47;100.00
70544;BME280;58097;48.364;-1.224;2023-11-18T01:20:00;100144.59;;;10.44;100.00
70544;BME280;58097;48.364;-1.224;2023-11-18T01:22:31;100139.22;;;10.43;100.00
70544;BME280;58097;48.364;-1.224;2023-11-18T01:24:56;100126.44;;;10.42;100.00
70544;BME280;58097;48.364;-1.224;2023-11-18T01:27:23;100112.19;;;10.37;100.00
70544;BME280;58097;48.364;-1.224;2023-11-18T01:29:48;100111.88;;;10.40;100.00
70544;BME280;58097;48.364;-1.224;2023-11-18T01:32:14;100112.47;;;10.43;100.00
70544;BME280;58097;48.364;-1.224;2023-11-18T01:34:39;100117.84;;;10.45;100.00
70544;BME280;58097;48.364;-1.224;2023-11-18T01:37:05;100109.25;;;10.48;100.00
70544;BME280;58097;48.364;-1.224;2023-11-18T01:39:33;100105.28;;;10.50;100.00
70544;BME280;58097;48.364;-1.224;2023-11-18T01:41:58;100102.84;;;10.47;100.00
70544;BME280;58097;48.364;-1.224;2023-11-18T01:44:24;100100.56;;;10.43;100.00
70544;BME280;58097;48.364;-1.224;2023-11-18T01:46:50;100101.09;;;10.46;100.00
70544;BME280;58097;48.364;-1.224;2023-11-18T01:49:16;100092.53;;;10.40;100.00
70544;BME280;58097;48.364;-1.224;2023-11-18T01:51:44;100101.56;;;10.42;100.00
70544;BME280;58097;48.364;-1.224;2023-11-18T01:54:12;100106.34;;;10.40;100.00
70544;BME280;58097;48.364;-1.224;2023-11-18T01:56:42;100093.84;;;10.45;100.00
70544;BME280;58097;48.364;-1.224;2023-11-18T01:59:09;100078.84;;;10.48;100.00
70544;BME280;58097;48.364;-1.224;2023-11-18T02:01:35;100080.59;;;10.49;100.00
70544;BME280;58097;48.364;-1.224;2023-11-18T02:04:01;100073.72;;;10.53;100.00
70544;BME280;58097;48.364;-1.224;2023-11-18T02:06:27;100082.38;;;10.58;100.00
70544;BME280;58097;48.364;-1.224;2023-11-18T02:08:53;100078.75;;;10.58;100.00
70544;BME280;58097;48.364;-1.224;2023-11-18T02:11:29;100087.38;;;10.54;100.00
70544;BME280;58097;48.364;-1.224;2023-11-18T02:13:58;100082.00;;;10.53;100.00
70544;BME280;58097;48.364;-1.224;2023-11-18T02:16:28;100081.84;;;10.54;100.00
70544;BME280;58097;48.364;-1.224;2023-11-18T02:18:53;100078.22;;;10.54;100.00
70544;BME280;58097;48.364;-1.224;2023-11-18T02:21:19;100071.50;;;10.57;100.00
70544;BME280;58097;48.364;-1.224;2023-11-18T02:23:48;100064.47;;;10.62;100.00
70544;BME280;58097;48.364;-1.224;2023-11-18T02:26:21;100065.19;;;10.64;100.00
70544;BME280;58097;48.364;-1.224;2023-11-18T02:28:46;100057.44;;;10.68;100.00
70544;BME280;58097;48.364;-1.224;2023-11-18T02:31:16;100052.94;;;10.67;100.00
70544;BME280;58097;48.364;-1.224;2023-11-18T02:34:02;100048.97;;;10.69;100.00
70544;BME280;58097;48.364;-1.224;2023-11-18T02:36:33;100044.91;;;10.73;100.00
70544;BME280;58097;48.364;-1.224;2023-11-18T02:39:05;100035.75;;;10.73;100.00
70544;BME280;58097;48.364;-1.224;2023-11-18T02:41:38;100036.94;;;10.70;100.00
70544;BME280;58097;48.364;-1.224;2023-11-18T02:44:06;100043.78;;;10.66;100.00
70544;BME280;58097;48.364;-1.224;2023-11-18T02:46:36;100061.94;;;10.69;100.00
70544;BME280;58097;48.364;-1.224;2023-11-18T02:49:02;100063.69;;;10.70;100.00
70544;BME280;58097;48.364;-1.224;2023-11-18T02:51:28;100052.00;;;10.76;100.00
70544;BME280;58097;48.364;-1.224;2023-11-18T02:53:54;100040.06;;;10.75;100.00
70544;BME280;58097;48.364;-1.224;2023-11-18T02:56:20;100030.44;;;10.79;100.00
70544;BME280;58097;48.364;-1.224;2023-11-18T02:58:45;100032.16;;;10.80;100.00
70544;BME280;58097;48.364;-1.224;2023-11-18T03:01:11;100023.00;;;10.80;100.00
70544;BME280;58097;48.364;-1.224;2023-11-18T03:03:36;100033.75;;;10.83;100.00
70544;BME280;58097;48.364;-1.224;2023-11-18T03:06:01;100033.03;;;10.81;100.00
70544;BME280;58097;48.364;-1.224;2023-11-18T03:08:27;100024.53;;;10.74;100.00
70544;BME280;58097;48.364;-1.224;2023-11-18T03:10:54;100021.06;;;10.72;100.00
70544;BME280;58097;48.364;-1.224;2023-11-18T03:13:20;100009.84;;;10.74;100.00
70544;BME280;58097;48.364;-1.224;2023-11-18T03:15:46;100012.59;;;10.74;100.00
70544;BME280;58097;48.364;-1.224;2023-11-18T03:18:13;100011.19;;;10.70;100.00
70544;BME280;58097;48.364;-1.224;2023-11-18T03:20:40;100012.75;;;10.72;100.00
70544;BME280;58097;48.364;-1.224;2023-11-18T03:23:05;100014.06;;;10.68;100.00
70544;BME280;58097;48.364;-1.224;2023-11-18T03:25:34;100006.09;;;10.65;100.00
70544;BME280;58097;48.364;-1.224;2023-11-18T03:28:00;99997.81;;;10.65;100.00
70544;BME280;58097;48.364;-1.224;2023-11-18T03:30:25;100008.72;;;10.67;100.00
70544;BME280;58097;48.364;-1.224;2023-11-18T03:32:51;99999.22;;;10.69;100.00
70544;BME280;58097;48.364;-1.224;2023-11-18T03:35:16;99988.81;;;10.63;100.00
70544;BME280;58097;48.364;-1.224;2023-11-18T03:37:41;99973.19;;;10.72;100.00
70544;BME280;58097;48.364;-1.224;2023-11-18T03:40:08;99965.28;;;10.77;100.00
70544;BME280;58097;48.364;-1.224;2023-11-18T03:42:34;99963.06;;;10.80;100.00
70544;BME280;58097;48.364;-1.224;2023-11-18T03:45:01;99966.03;;;10.87;100.00
70544;BME280;58097;48.364;-1.224;2023-11-18T03:47:27;99967.44;;;10.91;100.00
70544;BME280;58097;48.364;-1.224;2023-11-18T03:49:52;99964.50;;;10.93;100.00
70544;BME280;58097;48.364;-1.224;2023-11-18T03:52:20;99947.75;;;10.94;100.00
70544;BME280;58097;48.364;-1.224;2023-11-18T03:54:45;99945.00;;;10.94;100.00
70544;BME280;58097;48.364;-1.224;2023-11-18T03:57:10;99950.06;;;10.99;100.00
70544;BME280;58097;48.364;-1.224;2023-11-18T03:59:36;99954.56;;;11.00;100.00
70544;BME280;58097;48.364;-1.224;2023-11-18T04:02:01;99951.47;;;11.03;100.00
70544;BME280;58097;48.364;-1.224;2023-11-18T04:04:27;99948.00;;;11.01;100.00
70544;BME280;58097;48.364;-1.224;2023-11-18T04:06:52;99946.41;;;10.98;100.00
70544;BME280;58097;48.364;-1.224;2023-11-18T04:09:18;99939.00;;;10.99;100.00
70544;BME280;58097;48.364;-1.224;2023-11-18T04:11:43;99956.84;;;11.04;100.00
70544;BME280;58097;48.364;-1.224;2023-11-18T04:14:10;99950.28;;;11.05;100.00
70544;BME280;58097;48.364;-1.224;2023-11-18T04:16:36;99945.09;;;11.10;100.00
70544;BME280;58097;48.364;-1.224;2023-11-18T04:19:03;99939.94;;;11.15;100.00
70544;BME280;58097;48.364;-1.224;2023-11-18T04:21:29;99933.22;;;11.18;100.00
70544;BME280;58097;48.364;-1.224;2023-11-18T04:23:54;99922.69;;;11.22;100.00
70544;BME280;58097;48.364;-1.224;2023-11-18T04:26:20;99919.06;;;11.21;100.00
70544;BME280;58097;48.364;-1.224;2023-11-18T04:28:45;99913.34;;;11.23;100.00
70544;BME280;58097;48.364;-1.224;2023-11-18T04:31:10;99915.09;;;11.24;100.00
70544;BME280;58097;48.364;-1.224;2023-11-18T04:33:36;99937.44;;;11.30;100.00
70544;BME280;58097;48.364;-1.224;2023-11-18T04:36:02;99939.19;;;11.31;100.00
70544;BME280;58097;48.364;-1.224;2023-11-18T04:38:28;99947.16;;;11.34;100.00
70544;BME280;58097;48.364;-1.224;2023-11-18T04:40:53;99947.16;;;11.34;100.00
70544;BME280;58097;48.364;-1.224;2023-11-18T04:43:20;99944.22;;;11.36;100.00
70544;BME280;58097;48.364;-1.224;2023-11-18T04:45:46;99941.97;;;11.39;100.00
70544;BME280;58097;48.364;-1.224;2023-11-18T04:48:12;99940.56;;;11.35;100.00
70544;BME280;58097;48.364;-1.224;2023-11-18T04:50:41;99939.53;;;11.36;100.00
70544;BME280;58097;48.364;-1.224;2023-11-18T04:53:07;99941.81;;;11.41;100.00
70544;BME280;58097;48.364;-1.224;2023-11-18T04:55:38;99936.09;;;11.42;100.00
70544;BME280;58097;48.364;-1.224;2023-11-18T04:58:04;99933.69;;;11.47;100.00
70544;BME280;58097;48.364;-1.224;2023-11-18T05:00:34;99928.69;;;11.51;100.00
70544;BME280;58097;48.364;-1.224;2023-11-18T05:03:01;99931.28;;;11.53;100.00
70544;BME280;58097;48.364;-1.224;2023-11-18T05:05:26;99930.81;;;11.57;100.00
70544;BME280;58097;48.364;-1.224;2023-11-18T05:07:51;99934.28;;;11.59;100.00
70544;BME280;58097;48.364;-1.224;2023-11-18T05:10:17;99932.56;;;11.58;100.00
70544;BME280;58097;48.364;-1.224;2023-11-18T05:12:43;99932.88;;;11.55;100.00
70544;BME280;58097;48.364;-1.224;2023-11-18T05:15:09;99927.31;;;11.55;100.00
70544;BME280;58097;48.364;-1.224;2023-11-18T05:17:38;99927.72;;;11.60;100.00
70544;BME280;58097;48.364;-1.224;2023-11-18T05:20:04;99916.13;;;11.65;100.00
70544;BME280;58097;48.364;-1.224;2023-11-18T05:22:30;99923.22;;;11.67;100.00
70544;BME280;58097;48.364;-1.224;2023-11-18T05:24:56;99915.47;;;11.71;100.00
70544;BME280;58097;48.364;-1.224;2023-11-18T05:27:21;99910.63;;;11.73;100.00
70544;BME280;58097;48.364;-1.224;2023-11-18T05:29:47;99907.50;;;11.76;100.00
70544;BME280;58097;48.364;-1.224;2023-11-18T05:32:20;99903.00;;;11.75;100.00
70544;BME280;58097;48.364;-1.224;2023-11-18T05:34:45;99885.88;;;11.71;100.00
70544;BME280;58097;48.364;-1.224;2023-11-18T05:37:11;99882.94;;;11.73;100.00
70544;BME280;58097;48.364;-1.224;2023-11-18T05:39:36;99878.97;;;11.75;100.00
70544;BME280;58097;48.364;-1.224;2023-11-18T05:42:08;99873.09;;;11.78;100.00
70544;BME280;58097;48.364;-1.224;2023-11-18T05:44:36;99887.47;;;11.82;100.00
70544;BME280;58097;48.364;-1.224;2023-11-18T05:47:03;99887.00;;;11.87;100.00
70544;BME280;58097;48.364;-1.224;2023-11-18T05:49:28;99880.41;;;11.88;100.00
70544;BME280;58097;48.364;-1.224;2023-11-18T05:51:54;99877.31;;;11.91;100.00
70544;BME280;58097;48.364;-1.224;2023-11-18T05:54:19;99878.34;;;11.90;100.00
70544;BME280;58097;48.364;-1.224;2023-11-18T05:56:45;99880.25;;;11.89;100.00
70544;BME280;58097;48.364;-1.224;2023-11-18T05:59:10;99881.28;;;11.88;100.00
70544;BME280;58097;48.364;-1.224;2023-11-18T06:01:36;99894.97;;;11.90;100.00
70544;BME280;58097;48.364;-1.224;2023-11-18T06:04:03;99886.13;;;11.94;100.00
70544;BME280;58097;48.364;-1.224;2023-11-18T06:06:28;99885.78;;;11.97;100.00
70544;BME280;58097;48.364;-1.224;2023-11-18T06:08:53;99878.88;;;12.01;100.00
70544;BME280;58097;48.364;-1.224;2023-11-18T06:11:19;99884.06;;;12.04;100.00
70544;BME280;58097;48.364;-1.224;2023-11-18T06:13:47;99881.63;;;12.09;100.00
70544;BME280;58097;48.364;-1.224;2023-11-18T06:16:20;99881.63;;;12.09;100.00
70544;BME280;58097;48.364;-1.224;2023-11-18T06:18:47;99876.44;;;12.06;100.00
70544;BME280;58097;48.364;-1.224;2023-11-18T06:21:17;99882.31;;;12.03;100.00
70544;BME280;58097;48.364;-1.224;2023-11-18T06:23:44;99885.09;;;12.03;100.00
70544;BME280;58097;48.364;-1.224;2023-11-18T06:26:14;99878.88;;;12.09;100.00
70544;BME280;58097;48.364;-1.224;2023-11-18T06:28:43;99870.38;;;12.11;100.00
70544;BME280;58097;48.364;-1.224;2023-11-18T06:31:09;99877.47;;;12.14;100.00
70544;BME280;58097;48.364;-1.224;2023-11-18T06:36:05;99881.66;;;12.18;100.00
70544;BME280;58097;48.364;-1.224;2023-11-18T06:38:31;99883.41;;;12.19;100.00
70544;BME280;58097;48.364;-1.224;2023-11-18T06:40:56;99887.38;;;12.16;100.00
70544;BME280;58097;48.364;-1.224;2023-11-18T06:43:23;99888.56;;;12.14;100.00
70544;BME280;58097;48.364;-1.224;2023-11-18T06:45:50;99870.03;;;12.14;100.00
70544;BME280;58097;48.364;-1.224;2023-11-18T06:48:16;99872.31;;;12.19;100.00
70544;BME280;58097;48.364;-1.224;2023-11-18T06:50:45;99866.78;;;12.19;100.00
70544;BME280;58097;48.364;-1.224;2023-11-18T06:53:10;99873.69;;;12.23;100.00
70544;BME280;58097;48.364;-1.224;2023-11-18T06:55:37;99869.19;;;12.22;100.00
70544;BME280;58097;48.364;-1.224;2023-11-18T06:58:02;99885.47;;;12.25;100.00
70544;BME280;58097;48.364;-1.224;2023-11-18T07:00:28;99876.81;;;12.28;100.00
70544;BME280;58097;48.364;-1.224;2023-11-18T07:02:54;99879.59;;;12.20;100.00
70544;BME280;58097;48.364;-1.224;2023-11-18T07:05:20;99885.78;;;12.14;100.00
70544;BME280;58097;48.364;-1.224;2023-11-18T07:07:52;99884.06;;;12.13;100.00
70544;BME280;58097;48.364;-1.224;2023-11-18T07:10:17;99878.03;;;12.17;100.00
70544;BME280;58097;48.364;-1.224;2023-11-18T07:12:48;99856.19;;;12.22;100.00
70544;BME280;58097;48.364;-1.224;2023-11-18T07:15:14;99834.03;;;12.22;100.00
70544;BME280;58097;48.364;-1.224;2023-11-18T07:17:41;99834.91;;;12.23;100.00
70544;BME280;58097;48.364;-1.224;2023-11-18T07:20:07;99834.91;;;12.23;100.00
70544;BME280;58097;48.364;-1.224;2023-11-18T07:22:33;99842.19;;;12.24;100.00
70544;BME280;58097;48.364;-1.224;2023-11-18T07:24:59;99848.06;;;12.21;100.00
70544;BME280;58097;48.364;-1.224;2023-11-18T07:27:25;99845.28;;;12.21;100.00
70544;BME280;58097;48.364;-1.224;2023-11-18T07:29:50;99844.59;;;12.19;100.00
70544;BME280;58097;48.364;-1.224;2023-11-18T07:32:16;99837.84;;;12.21;100.00
70544;BME280;58097;48.364;-1.224;2023-11-18T07:34:44;99833.88;;;12.24;100.00
70544;BME280;58097;48.364;-1.224;2023-11-18T07:37:10;99832.81;;;12.25;100.00
70544;BME280;58097;48.364;-1.224;2023-11-18T07:39:36;99846.31;;;12.28;100.00
70544;BME280;58097;48.364;-1.224;2023-11-18T07:42:13;99845.78;;;12.32;100.00
70544;BME280;58097;48.364;-1.224;2023-11-18T07:44:39;99848.75;;;12.31;100.00
70544;BME280;58097;48.364;-1.224;2023-11-18T07:47:05;99851.34;;;12.32;100.00
70544;BME280;58097;48.364;-1.224;2023-11-18T07:49:31;99862.59;;;12.31;100.00
70544;BME280;58097;48.364;-1.224;2023-11-18T07:51:57;99864.50;;;12.30;100.00
70544;BME280;58097;48.364;-1.224;2023-11-18T07:54:22;99872.47;;;12.33;100.00
70544;BME280;58097;48.364;-1.224;2023-11-18T07:56:49;99875.75;;;12.37;100.00
70544;BME280;58097;48.364;-1.224;2023-11-18T07:59:14;99877.47;;;12.38;100.00
70544;BME280;58097;48.364;-1.224;2023-11-18T08:01:44;99871.59;;;12.41;100.00
70544;BME280;58097;48.364;-1.224;2023-11-18T08:04:11;99874.19;;;12.43;100.00
70544;BME280;58097;48.364;-1.224;2023-11-18T08:06:41;99873.50;;;12.40;100.00
70544;BME280;58097;48.364;-1.224;2023-11-18T08:09:08;99865.34;;;12.39;100.00
70544;BME280;58097;48.364;-1.224;2023-11-18T08:11:37;99861.38;;;12.41;100.00
70544;BME280;58097;48.364;-1.224;2023-11-18T08:14:04;99854.78;;;12.43;100.00
70544;BME280;58097;48.364;-1.224;2023-11-18T08:16:29;99866.41;;;12.46;100.00
70544;BME280;58097;48.364;-1.224;2023-11-18T08:18:55;99858.09;;;12.46;100.00
70544;BME280;58097;48.364;-1.224;2023-11-18T08:21:21;99862.44;;;12.49;100.00
70544;BME280;58097;48.364;-1.224;2023-11-18T08:23:47;99858.63;;;12.50;100.00
70544;BME280;58097;48.364;-1.224;2023-11-18T08:26:12;99863.44;;;12.56;100.00
70544;BME280;58097;48.364;-1.224;2023-11-18T08:28:38;99866.41;;;12.54;100.00
70544;BME280;58097;48.364;-1.224;2023-11-18T08:31:03;99869.53;;;12.51;100.00
70544;BME280;58097;48.364;-1.224;2023-11-18T08:33:30;99853.94;;;12.50;100.00
70544;BME280;58097;48.364;-1.224;2023-11-18T08:35:55;99853.22;;;12.56;100.00
70544;BME280;58097;48.364;-1.224;2023-11-18T08:38:21;99849.41;;;12.57;100.00
70544;BME280;58097;48.364;-1.224;2023-11-18T08:40:47;99872.97;;;12.61;100.00
70544;BME280;58097;48.364;-1.224;2023-11-18T08:43:13;99861.53;;;12.64;100.00
70544;BME280;58097;48.364;-1.224;2023-11-18T08:45:41;99856.84;;;12.65;100.00
70544;BME280;58097;48.364;-1.224;2023-11-18T08:48:07;99844.72;;;12.66;100.00
70544;BME280;58097;48.364;-1.224;2023-11-18T08:50:34;99848.88;;;12.62;100.00
70544;BME280;58097;48.364;-1.224;2023-11-18T08:52:59;99845.25;;;12.61;100.00
70544;BME280;58097;48.364;-1.224;2023-11-18T08:55:26;99828.25;;;12.64;100.00
70544;BME280;58097;48.364;-1.224;2023-11-18T08:58:05;99831.72;;;12.66;100.00
70544;BME280;58097;48.364;-1.224;2023-11-18T09:00:41;99834.31;;;12.68;100.00
70544;BME280;58097;48.364;-1.224;2023-11-18T09:03:14;99837.94;;;12.68;100.00
70544;BME280;58097;48.364;-1.224;2023-11-18T09:05:47;99841.59;;;12.69;100.00
70544;BME280;58097;48.364;-1.224;2023-11-18T09:08:29;99831.03;;;12.73;100.00
70544;BME280;58097;48.364;-1.224;2023-11-18T09:10:58;99839.34;;;12.73;100.00
70544;BME280;58097;48.364;-1.224;2023-11-18T09:13:24;99835.69;;;12.72;100.00
70544;BME280;58097;48.364;-1.224;2023-11-18T09:15:57;99823.59;;;12.73;100.00
70544;BME280;58097;48.364;-1.224;2023-11-18T09:18:25;99822.19;;;12.77;100.00
70544;BME280;58097;48.364;-1.224;2023-11-18T09:20:52;99819.22;;;12.79;100.00
70544;BME280;58097;48.364;-1.224;2023-11-18T09:23:22;99823.03;;;12.78;100.00
70544;BME280;58097;48.364;-1.224;2023-11-18T09:25:49;99828.06;;;12.82;100.00
70544;BME280;58097;48.364;-1.224;2023-11-18T09:28:15;99824.22;;;12.83;100.00
70544;BME280;58097;48.364;-1.224;2023-11-18T09:30:45;99820.41;;;12.84;100.00
70544;BME280;58097;48.364;-1.224;2023-11-18T09:33:24;99818.19;;;12.80;100.00
70544;BME280;58097;48.364;-1.224;2023-11-18T09:36:04;99818.19;;;12.80;100.00
70544;BME280;58097;48.364;-1.224;2023-11-18T09:38:34;99820.78;;;12.81;100.00
70544;BME280;58097;48.364;-1.224;2023-11-18T09:41:06;99812.59;;;12.88;100.00
70544;BME280;58097;48.364;-1.224;2023-11-18T09:43:37;99816.75;;;12.92;100.00
70544;BME280;58097;48.364;-1.224;2023-11-18T09:46:22;99808.41;;;12.92;100.00
70544;BME280;58097;48.364;-1.224;2023-11-18T09:51:25;99805.09;;;12.96;100.00
70544;BME280;58097;48.364;-1.224;2023-11-18T09:53:58;99808.94;;;12.95;100.00
70544;BME280;58097;48.364;-1.224;2023-11-18T09:59:20;99839.25;;;12.97;100.00
70544;BME280;58097;48.364;-1.224;2023-11-18T10:01:53;99829.88;;;12.98;100.00
70544;BME280;58097;48.364;-1.224;2023-11-18T10:04:23;99828.66;;;13.00;100.00
70544;BME280;58097;48.364;-1.224;2023-11-18T10:06:55;99833.19;;;13.01;100.00
70544;BME280;58097;48.364;-1.224;2023-11-18T10:09:23;99834.06;;;13.02;100.00
70544;BME280;58097;48.364;-1.224;2023-11-18T10:12:02;99834.56;;;13.06;100.00
70544;BME280;58097;48.364;-1.224;2023-11-18T10:14:32;99840.28;;;13.04;100.00
70544;BME280;58097;48.364;-1.224;2023-11-18T10:16:57;99839.44;;;13.03;100.00
70544;BME280;58097;48.364;-1.224;2023-11-18T10:19:23;99828.66;;;13.09;100.00
70544;BME280;58097;48.364;-1.224;2023-11-18T10:21:51;99831.06;;;13.12;100.00
70544;BME280;58097;48.364;-1.224;2023-11-18T10:24:16;99823.44;;;13.14;100.00
70544;BME280;58097;48.364;-1.224;2023-11-18T10:26:53;99827.25;;;13.21;100.00
70544;BME280;58097;48.364;-1.224;2023-11-18T10:29:19;99827.06;;;13.22;100.00
70544;BME280;58097;48.364;-1.224;2023-11-18T10:31:44;99824.59;;;13.27;100.00
70544;BME280;58097;48.364;-1.224;2023-11-18T10:34:14;99822.88;;;13.26;100.00
70544;BME280;58097;48.364;-1.224;2023-11-18T10:36:58;99817.31;;;13.26;100.00
70544;BME280;58097;48.364;-1.224;2023-11-18T10:39:28;99811.59;;;13.28;100.00
70544;BME280;58097;48.364;-1.224;2023-11-18T10:41:58;99817.31;;;13.35;100.00
70544;BME280;58097;48.364;-1.224;2023-11-18T10:44:24;99823.34;;;13.38;100.00
70544;BME280;58097;48.364;-1.224;2023-11-18T10:46:52;99822.97;;;13.41;100.00
70544;BME280;58097;48.364;-1.224;2023-11-18T10:49:26;99807.50;;;13.47;100.00
70544;BME280;58097;48.364;-1.224;2023-11-18T10:51:52;99811.81;;;13.49;100.00
70544;BME280;58097;48.364;-1.224;2023-11-18T10:54:18;99816.16;;;13.52;100.00
70544;BME280;58097;48.364;-1.224;2023-11-18T10:56:50;99805.03;;;13.52;100.00
70544;BME280;58097;48.364;-1.224;2023-11-18T10:59:16;99802.81;;;13.47;100.00
70544;BME280;58097;48.364;-1.224;2023-11-18T11:01:44;99803.31;;;13.51;100.00
70544;BME280;58097;48.364;-1.224;2023-11-18T11:04:10;99803.44;;;13.57;100.00
70544;BME280;58097;48.364;-1.224;2023-11-18T11:06:45;99805.69;;;13.62;100.00
70544;BME280;58097;48.364;-1.224;2023-11-18T11:09:20;99794.59;;;13.62;100.00
70544;BME280;58097;48.364;-1.224;2023-11-18T11:11:53;99804.47;;;13.64;100.00
70544;BME280;58097;48.364;-1.224;2023-11-18T11:14:21;99801.50;;;13.66;100.00
70544;BME280;58097;48.364;-1.224;2023-11-18T11:16:52;99803.59;;;13.64;100.00
70544;BME280;58097;48.364;-1.224;2023-11-18T11:19:25;99800.81;;;13.64;100.00
70544;BME280;58097;48.364;-1.224;2023-11-18T11:22:06;99796.13;;;13.64;100.00
70544;BME280;58097;48.364;-1.224;2023-11-18T11:25:02;99793.84;;;13.68;100.00
70544;BME280;58097;48.364;-1.224;2023-11-18T11:28:09;99786.19;;;13.70;100.00
70544;BME280;58097;48.364;-1.224;2023-11-18T11:30:46;99775.09;;;13.70;100.00
70544;BME280;58097;48.364;-1.224;2023-11-18T11:33:41;99772.13;;;13.72;100.00
70544;BME280;58097;48.364;-1.224;2023-11-18T11:36:17;99757.19;;;13.73;100.00
70544;BME280;58097;48.364;-1.224;2023-11-18T11:38:50;99752.88;;;13.70;100.00
70544;BME280;58097;48.364;-1.224;2023-11-18T11:41:17;99748.19;;;13.71;100.00
70544;BME280;58097;48.364;-1.224;2023-11-18T11:43:51;99750.56;;;13.74;100.00
70544;BME280;58097;48.364;-1.224;2023-11-18T11:46:21;99758.53;;;13.77;100.00
70544;BME280;58097;48.364;-1.224;2023-11-18T11:48:49;99750.00;;;13.78;100.00
70544;BME280;58097;48.364;-1.224;2023-11-18T11:51:31;99744.28;;;13.80;100.00
70544;BME280;58097;48.364;-1.224;2023-11-18T11:54:12;99751.19;;;13.84;100.00
70544;BME280;58097;48.364;-1.224;2023-11-18T11:56:48;99757.22;;;13.87;100.00
70544;BME280;58097;48.364;-1.224;2023-11-18T11:59:36;99760.38;;;13.84;100.00
70544;BME280;58097;48.364;-1.224;2023-11-18T12:02:25;99751.38;;;13.82;100.00
70544;BME280;58097;48.364;-1.224;2023-11-18T12:04:51;99758.28;;;13.86;100.00
70544;BME280;58097;48.364;-1.224;2023-11-18T12:07:20;99751.31;;;13.90;100.00
70544;BME280;58097;48.364;-1.224;2023-11-18T12:09:51;99743.84;;;13.91;100.00
70544;BME280;58097;48.364;-1.224;2023-11-18T12:12:24;99748.16;;;13.93;100.00
70544;BME280;58097;48.364;-1.224;2023-11-18T12:14:57;99741.19;;;13.98;100.00
70544;BME280;58097;48.364;-1.224;2023-11-18T12:20:42;99741.84;;;14.00;100.00
70544;BME280;58097;48.364;-1.224;2023-11-18T12:23:19;99739.06;;;14.00;100.00
70544;BME280;58097;48.364;-1.224;2023-11-18T12:25:49;99731.22;;;14.03;100.00
70544;BME280;58097;48.364;-1.224;2023-11-18T12:28:26;99736.22;;;14.08;100.00
70544;BME280;58097;48.364;-1.224;2023-11-18T12:30:53;99729.22;;;14.12;100.00
70544;BME280;58097;48.364;-1.224;2023-11-18T12:33:26;99713.22;;;14.14;100.00
70544;BME280;58097;48.364;-1.224;2023-11-18T12:41:42;99713.03;;;14.15;100.00
70544;BME280;58097;48.364;-1.224;2023-11-18T12:44:53;99707.47;;;14.15;100.00
70544;BME280;58097;48.364;-1.224;2023-11-18T12:47:20;99698.59;;;14.20;100.00
70544;BME280;58097;48.364;-1.224;2023-11-18T12:49:48;99692.47;;;14.24;100.00
70544;BME280;58097;48.364;-1.224;2023-11-18T12:52:20;99690.16;;;14.28;100.00
70544;BME280;58097;48.364;-1.224;2023-11-18T12:54:47;99676.94;;;14.30;100.00
70544;BME280;58097;48.364;-1.224;2023-11-18T12:57:26;99677.59;;;14.32;100.00
70544;BME280;58097;48.364;-1.224;2023-11-18T12:59:52;99657.94;;;14.34;100.00
70544;BME280;58097;48.364;-1.224;2023-11-18T13:02:18;99648.75;;;14.33;100.00